sensor_id;sensor_type;location;lat;lon;timestamp;pressure;altitude;pressure_sealevel;temperature;humidity
61119;BME280;51448;51.660;5.824;2023-09-19T00:01:59;100656.34;;;15.48;100.00
61119;BME280;51448;51.660;5.824;2023-09-19T00:04:27;100658.13;;;15.48;100.00
61119;BME280;51448;51.660;5.824;2023-09-19T00:06:56;100655.47;;;15.48;100.00
61119;BME280;51448;51.660;5.824;2023-09-19T00:09:23;100663.59;;;15.45;100.00
61119;BME280;51448;51.660;5.824;2023-09-19T00:11:54;100661.03;;;15.43;100.00
61119;BME280;51448;51.660;5.824;2023-09-19T00:14:24;100678.72;;;15.43;100.00
61119;BME280;51448;51.660;5.824;2023-09-19T00:16:52;100671.78;;;15.40;100.00
61119;BME280;51448;51.660;5.824;2023-09-19T00:19:22;100663.97;;;15.37;100.00
61119;BME280;51448;51.660;5.824;2023-09-19T00:21:50;100669.34;;;15.36;100.00
61119;BME280;51448;51.660;5.824;2023-09-19T00:24:20;100670.38;;;15.33;100.00
61119;BME280;51448;51.660;5.824;2023-09-19T00:26:50;100672.25;;;15.31;100.00
61119;BME280;51448;51.660;5.824;2023-09-19T00:29:18;100678.56;;;15.28;100.00
61119;BME280;51448;51.660;5.824;2023-09-19T00:31:46;100676.94;;;15.26;100.00
61119;BME280;51448;51.660;5.824;2023-09-19T00:34:14;100676.16;;;15.24;100.00
61119;BME280;51448;51.660;5.824;2023-09-19T00:36:44;100685.19;;;15.20;100.00
61119;BME280;51448;51.660;5.824;2023-09-19T00:39:12;100680.88;;;15.17;100.00
61119;BME280;51448;51.660;5.824;2023-09-19T00:41:40;100687.19;;;15.15;100.00
61119;BME280;51448;51.660;5.824;2023-09-19T00:44:08;100681.19;;;15.11;100.00
61119;BME280;51448;51.660;5.824;2023-09-19T00:46:36;100693.63;;;15.09;100.00
61119;BME280;51448;51.660;5.824;2023-09-19T00:49:04;100687.50;;;15.08;100.00
61119;BME280;51448;51.660;5.824;2023-09-19T00:51:32;100695.50;;;15.07;100.00
61119;BME280;51448;51.660;5.824;2023-09-19T00:54:03;100690.31;;;15.05;100.00
61119;BME280;51448;51.660;5.824;2023-09-19T00:56:31;100700.19;;;15.02;100.00
61119;BME280;51448;51.660;5.824;2023-09-19T00:58:59;100701.19;;;14.99;100.00
61119;BME280;51448;51.660;5.824;2023-09-19T01:01:28;100701.25;;;14.98;100.00
61119;BME280;51448;51.660;5.824;2023-09-19T01:03:55;100711.94;;;14.96;100.00
61119;BME280;51448;51.660;5.824;2023-09-19T01:06:23;100705.91;;;14.93;100.00
61119;BME280;51448;51.660;5.824;2023-09-19T01:08:53;100713.94;;;14.91;100.00
61119;BME280;51448;51.660;5.824;2023-09-19T01:11:35;100728.97;;;14.91;100.00
61119;BME280;51448;51.660;5.824;2023-09-19T01:14:44;100719.44;;;14.86;100.00
61119;BME280;51448;51.660;5.824;2023-09-19T01:17:31;100721.31;;;14.84;100.00
61119;BME280;51448;51.660;5.824;2023-09-19T01:20:20;100717.88;;;14.82;100.00
61119;BME280;51448;51.660;5.824;2023-09-19T01:26:39;100724.91;;;14.83;100.00
61119;BME280;51448;51.660;5.824;2023-09-19T01:29:41;100725.03;;;14.80;100.00
61119;BME280;51448;51.660;5.824;2023-09-19T01:32:13;100725.97;;;14.79;100.00
61119;BME280;51448;51.660;5.824;2023-09-19T01:34:48;100732.13;;;14.80;100.00
61119;BME280;51448;51.660;5.824;2023-09-19T01:37:21;100742.78;;;14.78;100.00
61119;BME280;51448;51.660;5.824;2023-09-19T01:40:02;100743.72;;;14.77;100.00
61119;BME280;51448;51.660;5.824;2023-09-19T01:43:00;100741.06;;;14.77;100.00
61119;BME280;51448;51.660;5.824;2023-09-19T01:46:15;100746.50;;;14.74;100.00
61119;BME280;51448;51.660;5.824;2023-09-19T01:52:09;100747.66;;;14.68;100.00
61119;BME280;51448;51.660;5.824;2023-09-19T01:54:49;100746.09;;;14.64;100.00
61119;BME280;51448;51.660;5.824;2023-09-19T01:57:28;100741.78;;;14.62;100.00
61119;BME280;51448;51.660;5.824;2023-09-19T02:00:06;100739.28;;;14.59;100.00
61119;BME280;51448;51.660;5.824;2023-09-19T02:02:45;100741.16;;;14.57;100.00
61119;BME280;51448;51.660;5.824;2023-09-19T02:05:25;100740.31;;;14.55;100.00
61119;BME280;51448;51.660;5.824;2023-09-19T02:07:55;100751.03;;;14.52;100.00
61119;BME280;51448;51.660;5.824;2023-09-19T02:10:23;100746.63;;;14.52;100.00
61119;BME280;51448;51.660;5.824;2023-09-19T02:12:51;100752.03;;;14.49;100.00
61119;BME280;51448;51.660;5.824;2023-09-19T02:15:18;100751.19;;;14.48;100.00
61119;BME280;51448;51.660;5.824;2023-09-19T02:17:46;100751.19;;;14.48;100.00
61119;BME280;51448;51.660;5.824;2023-09-19T02:20:14;100755.69;;;14.46;100.00
61119;BME280;51448;51.660;5.824;2023-09-19T02:22:42;100758.41;;;14.45;100.00
61119;BME280;51448;51.660;5.824;2023-09-19T02:25:10;100762.97;;;14.41;100.00
61119;BME280;51448;51.660;5.824;2023-09-19T02:27:38;100762.97;;;14.41;100.00
61119;BME280;51448;51.660;5.824;2023-09-19T02:30:07;100760.47;;;14.38;100.00
61119;BME280;51448;51.660;5.824;2023-09-19T02:32:35;100767.63;;;14.36;100.00
61119;BME280;51448;51.660;5.824;2023-09-19T02:35:10;100773.81;;;14.35;100.00
61119;BME280;51448;51.660;5.824;2023-09-19T02:37:38;100760.75;;;14.32;100.00
61119;BME280;51448;51.660;5.824;2023-09-19T02:40:06;100772.25;;;14.31;100.00
61119;BME280;51448;51.660;5.824;2023-09-19T02:42:52;100775.03;;;14.28;100.00
61119;BME280;51448;51.660;5.824;2023-09-19T02:45:23;100781.34;;;14.25;100.00
61119;BME280;51448;51.660;5.824;2023-09-19T02:47:50;100784.03;;;14.24;100.00
61119;BME280;51448;51.660;5.824;2023-09-19T02:50:18;100774.47;;;14.21;100.00
61119;BME280;51448;51.660;5.824;2023-09-19T02:52:46;100778.97;;;14.19;100.00
61119;BME280;51448;51.660;5.824;2023-09-19T02:55:17;100775.59;;;14.16;100.00
61119;BME280;51448;51.660;5.824;2023-09-19T02:57:52;100770.34;;;14.14;100.00
61119;BME280;51448;51.660;5.824;2023-09-19T03:00:22;100776.66;;;14.12;100.00
61119;BME280;51448;51.660;5.824;2023-09-19T03:02:54;100775.84;;;14.09;100.00
61119;BME280;51448;51.660;5.824;2023-09-19T03:05:23;100787.44;;;14.07;100.00
61119;BME280;51448;51.660;5.824;2023-09-19T03:07:52;100784.06;;;14.03;100.00
61119;BME280;51448;51.660;5.824;2023-09-19T03:10:23;100786.75;;;14.02;100.00
61119;BME280;51448;51.660;5.824;2023-09-19T03:12:52;100796.53;;;14.00;100.00
61119;BME280;51448;51.660;5.824;2023-09-19T03:15:20;100794.84;;;13.99;100.00
61119;BME280;51448;51.660;5.824;2023-09-19T03:17:51;100785.22;;;13.96;100.00
61119;BME280;51448;51.660;5.824;2023-09-19T03:20:23;100785.38;;;13.93;100.00
61119;BME280;51448;51.660;5.824;2023-09-19T03:22:50;100790.72;;;13.92;100.00
61119;BME280;51448;51.660;5.824;2023-09-19T03:25:21;100790.78;;;13.90;100.00
61119;BME280;51448;51.660;5.824;2023-09-19T03:27:51;100785.50;;;13.90;100.00
61119;BME280;51448;51.660;5.824;2023-09-19T03:30:20;100786.47;;;13.87;100.00
61119;BME280;51448;51.660;5.824;2023-09-19T03:32:49;100783.91;;;13.86;100.00
61119;BME280;51448;51.660;5.824;2023-09-19T03:35:18;100787.47;;;13.85;100.00
61119;BME280;51448;51.660;5.824;2023-09-19T03:37:47;100792.78;;;13.85;100.00
61119;BME280;51448;51.660;5.824;2023-09-19T03:40:17;100784.03;;;13.83;100.00
61119;BME280;51448;51.660;5.824;2023-09-19T03:42:44;100785.03;;;13.80;100.00
61119;BME280;51448;51.660;5.824;2023-09-19T03:45:13;100777.16;;;13.79;100.00
61119;BME280;51448;51.660;5.824;2023-09-19T03:48:12;100777.22;;;13.77;100.00
61119;BME280;51448;51.660;5.824;2023-09-19T03:50:41;100778.16;;;13.76;100.00
61119;BME280;51448;51.660;5.824;2023-09-19T03:53:11;100777.28;;;13.76;100.00
61119;BME280;51448;51.660;5.824;2023-09-19T03:55:39;100780.81;;;13.76;100.00
61119;BME280;51448;51.660;5.824;2023-09-19T03:58:08;100771.09;;;13.77;100.00
61119;BME280;51448;51.660;5.824;2023-09-19T04:00:35;100777.28;;;13.76;100.00
61119;BME280;51448;51.660;5.824;2023-09-19T04:03:06;100772.94;;;13.75;100.00
61119;BME280;51448;51.660;5.824;2023-09-19T04:05:35;100778.22;;;13.75;100.00
61119;BME280;51448;51.660;5.824;2023-09-19T04:08:02;100776.44;;;13.75;100.00
61119;BME280;51448;51.660;5.824;2023-09-19T04:10:30;100780.88;;;13.75;100.00
61119;BME280;51448;51.660;5.824;2023-09-19T04:12:58;100779.13;;;13.74;100.00
61119;BME280;51448;51.660;5.824;2023-09-19T04:15:25;100775.63;;;13.73;100.00
61119;BME280;51448;51.660;5.824;2023-09-19T04:17:54;100770.34;;;13.73;100.00
61119;BME280;51448;51.660;5.824;2023-09-19T04:20:22;100772.13;;;13.73;100.00
61119;BME280;51448;51.660;5.824;2023-09-19T04:22:50;100780.97;;;13.72;100.00
61119;BME280;51448;51.660;5.824;2023-09-19T04:25:18;100793.41;;;13.69;100.00
61119;BME280;51448;51.660;5.824;2023-09-19T04:27:46;100797.84;;;13.69;100.00
61119;BME280;51448;51.660;5.824;2023-09-19T04:30:15;100794.41;;;13.67;100.00
61119;BME280;51448;51.660;5.824;2023-09-19T04:32:43;100797.97;;;13.66;100.00
61119;BME280;51448;51.660;5.824;2023-09-19T04:35:11;100807.59;;;13.67;100.00
61119;BME280;51448;51.660;5.824;2023-09-19T04:37:39;100814.75;;;13.65;100.00
61119;BME280;51448;51.660;5.824;2023-09-19T04:40:10;100819.22;;;13.63;100.00
61119;BME280;51448;51.660;5.824;2023-09-19T04:42:53;100820.06;;;13.63;100.00
61119;BME280;51448;51.660;5.824;2023-09-19T04:45:24;100828.09;;;13.62;100.00
61119;BME280;51448;51.660;5.824;2023-09-19T04:47:54;100841.22;;;13.63;100.00
61119;BME280;51448;51.660;5.824;2023-09-19T04:50:22;100844.81;;;13.62;100.00
61119;BME280;51448;51.660;5.824;2023-09-19T04:52:50;100841.22;;;13.63;100.00
61119;BME280;51448;51.660;5.824;2023-09-19T04:55:19;100840.38;;;13.63;100.00
61119;BME280;51448;51.660;5.824;2023-09-19T04:57:49;100844.75;;;13.64;100.00
61119;BME280;51448;51.660;5.824;2023-09-19T05:00:22;100846.50;;;13.63;100.00
61119;BME280;51448;51.660;5.824;2023-09-19T05:02:55;100849.09;;;13.65;100.00
61119;BME280;51448;51.660;5.824;2023-09-19T05:05:24;100853.38;;;13.67;100.00
61119;BME280;51448;51.660;5.824;2023-09-19T05:07:53;100845.41;;;13.69;100.00
61119;BME280;51448;51.660;5.824;2023-09-19T05:10:21;100848.00;;;13.71;100.00
61119;BME280;51448;51.660;5.824;2023-09-19T05:12:52;100851.44;;;13.73;100.00
61119;BME280;51448;51.660;5.824;2023-09-19T05:15:20;100855.78;;;13.74;100.00
61119;BME280;51448;51.660;5.824;2023-09-19T05:17:49;100853.94;;;13.76;100.00
61119;BME280;51448;51.660;5.824;2023-09-19T05:20:23;100854.72;;;13.78;100.00
61119;BME280;51448;51.660;5.824;2023-09-19T05:23:03;100855.63;;;13.78;100.00
61119;BME280;51448;51.660;5.824;2023-09-19T05:25:39;100857.38;;;13.78;100.00
61119;BME280;51448;51.660;5.824;2023-09-19T05:28:10;100856.47;;;13.79;100.00
61119;BME280;51448;51.660;5.824;2023-09-19T05:30:42;100867.03;;;13.79;100.00
61119;BME280;51448;51.660;5.824;2023-09-19T05:33:15;100861.63;;;13.82;100.00
61119;BME280;51448;51.660;5.824;2023-09-19T05:35:44;100851.94;;;13.82;100.00
61119;BME280;51448;51.660;5.824;2023-09-19T05:38:14;100858.06;;;13.83;100.00
61119;BME280;51448;51.660;5.824;2023-09-19T05:40:46;100858.06;;;13.83;100.00
61119;BME280;51448;51.660;5.824;2023-09-19T05:43:13;100858.91;;;13.83;100.00
61119;BME280;51448;51.660;5.824;2023-09-19T05:45:41;100864.94;;;13.87;100.00
61119;BME280;51448;51.660;5.824;2023-09-19T05:48:14;100849.88;;;13.89;100.00
61119;BME280;51448;51.660;5.824;2023-09-19T05:50:44;100859.50;;;13.90;100.00
61119;BME280;51448;51.660;5.824;2023-09-19T05:53:15;100866.53;;;13.91;100.00
61119;BME280;51448;51.660;5.824;2023-09-19T05:55:43;100866.47;;;13.93;100.00
61119;BME280;51448;51.660;5.824;2023-09-19T05:58:11;100861.09;;;13.94;100.00
61119;BME280;51448;51.660;5.824;2023-09-19T06:00:44;100862.78;;;13.97;100.00
61119;BME280;51448;51.660;5.824;2023-09-19T06:03:14;100856.56;;;13.98;100.00
61119;BME280;51448;51.660;5.824;2023-09-19T06:05:42;100850.28;;;14.00;100.00
61119;BME280;51448;51.660;5.824;2023-09-19T06:08:09;100855.50;;;14.02;100.00
61119;BME280;51448;51.660;5.824;2023-09-19T06:10:37;100865.03;;;14.06;100.00
61119;BME280;51448;51.660;5.824;2023-09-19T06:13:05;100871.91;;;14.10;100.00
61119;BME280;51448;51.660;5.824;2023-09-19T06:15:33;100858.56;;;14.13;100.00
61119;BME280;51448;51.660;5.824;2023-09-19T06:18:03;100859.38;;;14.15;100.00
61119;BME280;51448;51.660;5.824;2023-09-19T06:20:32;100863.66;;;14.18;100.00
61119;BME280;51448;51.660;5.824;2023-09-19T06:23:02;100856.47;;;14.21;100.00
61119;BME280;51448;51.660;5.824;2023-09-19T06:25:30;100858.09;;;14.24;100.00
61119;BME280;51448;51.660;5.824;2023-09-19T06:27:58;100869.44;;;14.27;100.00
61119;BME280;51448;51.660;5.824;2023-09-19T06:30:26;100872.78;;;14.31;100.00
61119;BME280;51448;51.660;5.824;2023-09-19T06:32:57;100870.00;;;14.34;100.00
61119;BME280;51448;51.660;5.824;2023-09-19T06:35:28;100873.31;;;14.39;100.00
61119;BME280;51448;51.660;5.824;2023-09-19T06:38:04;100874.97;;;14.42;100.00
61119;BME280;51448;51.660;5.824;2023-09-19T06:40:34;100876.63;;;14.44;100.00
61119;BME280;51448;51.660;5.824;2023-09-19T06:43:02;100880.06;;;14.46;100.00
61119;BME280;51448;51.660;5.824;2023-09-19T06:45:32;100887.78;;;14.51;100.00
61119;BME280;51448;51.660;5.824;2023-09-19T06:48:00;100897.38;;;14.54;100.00
61119;BME280;51448;51.660;5.824;2023-09-19T06:50:30;100894.50;;;14.60;100.00
61119;BME280;51448;51.660;5.824;2023-09-19T06:53:00;100901.47;;;14.62;100.00
61119;BME280;51448;51.660;5.824;2023-09-19T06:55:28;100896.03;;;14.65;100.00
61119;BME280;51448;51.660;5.824;2023-09-19T06:58:02;100888.75;;;14.71;100.00
61119;BME280;51448;51.660;5.824;2023-09-19T07:00:55;100896.50;;;14.75;100.00
61119;BME280;51448;51.660;5.824;2023-09-19T07:03:24;100898.19;;;14.76;100.00
61119;BME280;51448;51.660;5.824;2023-09-19T07:05:56;100886.53;;;14.80;100.00
61119;BME280;51448;51.660;5.824;2023-09-19T07:08:26;100888.22;;;14.83;100.00
61119;BME280;51448;51.660;5.824;2023-09-19T07:10:56;100888.00;;;14.87;100.00
61119;BME280;51448;51.660;5.824;2023-09-19T07:13:23;100894.09;;;14.89;100.00
61119;BME280;51448;51.660;5.824;2023-09-19T07:15:52;100888.56;;;14.94;100.00
61119;BME280;51448;51.660;5.824;2023-09-19T07:18:20;100896.38;;;14.97;100.00
61119;BME280;51448;51.660;5.824;2023-09-19T07:20:48;100889.22;;;14.99;100.00
61119;BME280;51448;51.660;5.824;2023-09-19T07:23:19;100899.66;;;15.02;100.00
61119;BME280;51448;51.660;5.824;2023-09-19T07:25:56;100901.97;;;15.10;100.00
61119;BME280;51448;51.660;5.824;2023-09-19T07:28:27;100912.34;;;15.15;100.00
61119;BME280;51448;51.660;5.824;2023-09-19T07:30:55;100913.94;;;15.19;100.00
61119;BME280;51448;51.660;5.824;2023-09-19T07:33:23;100904.97;;;15.21;100.00
61119;BME280;51448;51.660;5.824;2023-09-19T07:35:55;100914.59;;;15.24;100.00
61119;BME280;51448;51.660;5.824;2023-09-19T07:38:24;100904.63;;;15.29;100.00
61119;BME280;51448;51.660;5.824;2023-09-19T07:40:52;100900.91;;;15.33;100.00
61119;BME280;51448;51.660;5.824;2023-09-19T07:43:19;100896.34;;;15.37;100.00
61119;BME280;51448;51.660;5.824;2023-09-19T07:45:47;100902.13;;;15.45;100.00
61119;BME280;51448;51.660;5.824;2023-09-19T07:48:25;100913.28;;;15.52;100.00
61119;BME280;51448;51.660;5.824;2023-09-19T07:51:22;100894.44;;;15.58;100.00
61119;BME280;51448;51.660;5.824;2023-09-19T07:53:50;100907.97;;;15.70;100.00
61119;BME280;51448;51.660;5.824;2023-09-19T07:56:18;100905.69;;;15.82;100.00
61119;BME280;51448;51.660;5.824;2023-09-19T07:58:49;100907.56;;;15.97;100.00
61119;BME280;51448;51.660;5.824;2023-09-19T08:01:17;100900.88;;;16.07;100.00
61119;BME280;51448;51.660;5.824;2023-09-19T08:03:45;100901.47;;;16.14;100.00
61119;BME280;51448;51.660;5.824;2023-09-19T08:06:13;100915.88;;;16.26;100.00
61119;BME280;51448;51.660;5.824;2023-09-19T08:08:41;100918.88;;;16.37;100.00
61119;BME280;51448;51.660;5.824;2023-09-19T08:11:09;100916.44;;;16.50;99.73
61119;BME280;51448;51.660;5.824;2023-09-19T08:13:40;100913.16;;;16.62;99.94
61119;BME280;51448;51.660;5.824;2023-09-19T08:16:11;100908.03;;;16.75;99.74
61119;BME280;51448;51.660;5.824;2023-09-19T08:18:38;100907.59;;;16.84;98.13
61119;BME280;51448;51.660;5.824;2023-09-19T08:21:11;100914.47;;;16.88;97.74
61119;BME280;51448;51.660;5.824;2023-09-19T08:23:41;100912.59;;;16.91;97.56
61119;BME280;51448;51.660;5.824;2023-09-19T08:26:09;100913.38;;;16.93;96.69
61119;BME280;51448;51.660;5.824;2023-09-19T08:28:37;100912.41;;;16.94;96.92
61119;BME280;51448;51.660;5.824;2023-09-19T08:31:08;100920.06;;;17.00;97.21
61119;BME280;51448;51.660;5.824;2023-09-19T08:33:37;100917.00;;;17.07;96.97
61119;BME280;51448;51.660;5.824;2023-09-19T08:36:06;100917.50;;;17.14;96.08
61119;BME280;51448;51.660;5.824;2023-09-19T08:38:35;100918.13;;;17.19;95.76
61119;BME280;51448;51.660;5.824;2023-09-19T08:41:07;100911.78;;;17.22;95.70
61119;BME280;51448;51.660;5.824;2023-09-19T08:43:36;100915.84;;;17.29;95.72
61119;BME280;51448;51.660;5.824;2023-09-19T08:46:11;100910.78;;;17.40;95.69
61119;BME280;51448;51.660;5.824;2023-09-19T08:48:58;100917.28;;;17.50;95.40
61119;BME280;51448;51.660;5.824;2023-09-19T08:51:43;100918.50;;;17.61;94.17
61119;BME280;51448;51.660;5.824;2023-09-19T08:54:24;100926.06;;;17.68;93.88
61119;BME280;51448;51.660;5.824;2023-09-19T08:56:59;100917.81;;;17.73;93.24
61119;BME280;51448;51.660;5.824;2023-09-19T08:59:32;100921.22;;;17.75;92.49
61119;BME280;51448;51.660;5.824;2023-09-19T09:02:02;100920.19;;;17.78;92.79
61119;BME280;51448;51.660;5.824;2023-09-19T09:04:43;100929.66;;;17.83;92.87
61119;BME280;51448;51.660;5.824;2023-09-19T09:07:13;100920.41;;;17.91;91.35
61119;BME280;51448;51.660;5.824;2023-09-19T09:09:42;100922.59;;;17.98;91.07
61119;BME280;51448;51.660;5.824;2023-09-19T09:12:17;100916.56;;;18.10;91.33
61119;BME280;51448;51.660;5.824;2023-09-19T09:14:47;100913.56;;;18.17;91.64
61119;BME280;51448;51.660;5.824;2023-09-19T09:17:17;100914.69;;;18.13;90.55
61119;BME280;51448;51.660;5.824;2023-09-19T09:19:47;100917.44;;;18.11;89.50
61119;BME280;51448;51.660;5.824;2023-09-19T09:22:15;100923.44;;;18.15;89.53
61119;BME280;51448;51.660;5.824;2023-09-19T09:24:57;100923.19;;;18.19;88.73
61119;BME280;51448;51.660;5.824;2023-09-19T09:27:25;100922.13;;;18.22;89.06
61119;BME280;51448;51.660;5.824;2023-09-19T09:29:53;100923.75;;;18.24;88.74
61119;BME280;51448;51.660;5.824;2023-09-19T09:32:30;100924.09;;;18.34;88.87
61119;BME280;51448;51.660;5.824;2023-09-19T09:35:07;100922.47;;;18.32;88.17
61119;BME280;51448;51.660;5.824;2023-09-19T09:37:43;100922.09;;;18.38;88.67
61119;BME280;51448;51.660;5.824;2023-09-19T09:40:10;100916.97;;;18.49;88.75
61119;BME280;51448;51.660;5.824;2023-09-19T09:42:44;100907.56;;;18.58;88.45
61119;BME280;51448;51.660;5.824;2023-09-19T09:45:23;100886.47;;;18.69;87.36
61119;BME280;51448;51.660;5.824;2023-09-19T09:48:00;100891.44;;;18.75;85.87
61119;BME280;51448;51.660;5.824;2023-09-19T09:50:34;100886.69;;;18.80;84.90
61119;BME280;51448;51.660;5.824;2023-09-19T09:53:22;100896.22;;;18.84;84.99
61119;BME280;51448;51.660;5.824;2023-09-19T09:58:27;100903.06;;;19.03;84.91
61119;BME280;51448;51.660;5.824;2023-09-19T10:00:59;100900.69;;;19.13;84.00
61119;BME280;51448;51.660;5.824;2023-09-19T10:03:39;100892.22;;;19.20;83.77
61119;BME280;51448;51.660;5.824;2023-09-19T10:06:10;100902.41;;;19.28;84.35
61119;BME280;51448;51.660;5.824;2023-09-19T10:09:07;100903.78;;;19.34;84.47
61119;BME280;51448;51.660;5.824;2023-09-19T10:11:42;100898.81;;;19.42;84.83
61119;BME280;51448;51.660;5.824;2023-09-19T10:14:18;100897.69;;;19.46;83.08
61119;BME280;51448;51.660;5.824;2023-09-19T10:17:00;100879.50;;;19.53;83.13
61119;BME280;51448;51.660;5.824;2023-09-19T10:19:43;100898.63;;;19.59;82.21
61119;BME280;51448;51.660;5.824;2023-09-19T10:22:19;100894.53;;;19.54;80.42
61119;BME280;51448;51.660;5.824;2023-09-19T10:24:49;100894.34;;;19.57;80.18
61119;BME280;51448;51.660;5.824;2023-09-19T10:27:30;100900.31;;;19.60;81.54
61119;BME280;51448;51.660;5.824;2023-09-19T10:30:05;100886.94;;;19.75;80.80
61119;BME280;51448;51.660;5.824;2023-09-19T10:32:36;100902.63;;;19.94;79.69
61119;BME280;51448;51.660;5.824;2023-09-19T10:35:11;100888.16;;;20.10;78.90
61119;BME280;51448;51.660;5.824;2023-09-19T10:37:41;100881.75;;;20.26;78.16
61119;BME280;51448;51.660;5.824;2023-09-19T10:40:12;100897.59;;;20.42;78.45
61119;BME280;51448;51.660;5.824;2023-09-19T10:42:45;100916.63;;;20.50;75.58
61119;BME280;51448;51.660;5.824;2023-09-19T10:45:16;100885.97;;;20.43;75.83
61119;BME280;51448;51.660;5.824;2023-09-19T10:47:47;100885.66;;;20.35;76.78
61119;BME280;51448;51.660;5.824;2023-09-19T10:50:20;100889.78;;;20.26;77.41
61119;BME280;51448;51.660;5.824;2023-09-19T10:52:54;100891.28;;;20.30;76.44
61119;BME280;51448;51.660;5.824;2023-09-19T10:55:27;100890.53;;;20.28;75.86
61119;BME280;51448;51.660;5.824;2023-09-19T10:57:58;100897.78;;;20.26;77.03
61119;BME280;51448;51.660;5.824;2023-09-19T11:00:27;100883.81;;;20.35;76.96
61119;BME280;51448;51.660;5.824;2023-09-19T11:03:17;100885.66;;;20.47;76.70
61119;BME280;51448;51.660;5.824;2023-09-19T11:06:01;100882.31;;;20.57;76.96
61119;BME280;51448;51.660;5.824;2023-09-19T11:09:03;100895.09;;;20.66;75.02
61119;BME280;51448;51.660;5.824;2023-09-19T11:11:52;100870.63;;;20.59;74.00
61119;BME280;51448;51.660;5.824;2023-09-19T11:43:48;100824.63;;;20.67;72.58
61119;BME280;51448;51.660;5.824;2023-09-19T11:46:23;100824.63;;;20.67;73.82
61119;BME280;51448;51.660;5.824;2023-09-19T11:48:54;100821.66;;;20.72;74.20
61119;BME280;51448;51.660;5.824;2023-09-19T11:51:24;100817.47;;;20.80;73.95
61119;BME280;51448;51.660;5.824;2023-09-19T11:53:57;100810.50;;;20.90;73.22
61119;BME280;51448;51.660;5.824;2023-09-19T11:56:29;100816.97;;;21.12;73.24
61119;BME280;51448;51.660;5.824;2023-09-19T11:58:59;100823.53;;;21.32;71.84
61119;BME280;51448;51.660;5.824;2023-09-19T12:01:33;100814.19;;;21.50;71.17
61119;BME280;51448;51.660;5.824;2023-09-19T12:04:02;100794.16;;;21.56;70.29
61119;BME280;51448;51.660;5.824;2023-09-19T12:06:32;100804.84;;;21.56;70.47
61119;BME280;51448;51.660;5.824;2023-09-19T12:09:00;100813.38;;;21.61;70.46
61119;BME280;51448;51.660;5.824;2023-09-19T12:11:41;100804.03;;;21.67;70.55
61119;BME280;51448;51.660;5.824;2023-09-19T12:14:23;100800.06;;;21.73;68.42
61119;BME280;51448;51.660;5.824;2023-09-19T12:16:55;100802.63;;;21.74;67.98
61119;BME280;51448;51.660;5.824;2023-09-19T12:19:25;100800.06;;;21.73;66.61
61119;BME280;51448;51.660;5.824;2023-09-19T12:22:00;100816.75;;;21.76;67.10
61119;BME280;51448;51.660;5.824;2023-09-19T12:24:32;100809.91;;;21.72;66.33
61119;BME280;51448;51.660;5.824;2023-09-19T12:27:06;100804.16;;;21.65;66.62
61119;BME280;51448;51.660;5.824;2023-09-19T12:29:45;100804.50;;;21.61;66.98
61119;BME280;51448;51.660;5.824;2023-09-19T12:32:16;100798.03;;;21.52;67.59
61119;BME280;51448;51.660;5.824;2023-09-19T12:34:51;100801.91;;;21.48;68.49
61119;BME280;51448;51.660;5.824;2023-09-19T12:37:20;100807.00;;;21.51;67.26
61119;BME280;51448;51.660;5.824;2023-09-19T12:39:51;100802.38;;;21.53;67.66
61119;BME280;51448;51.660;5.824;2023-09-19T12:42:26;100801.81;;;21.61;67.01
61119;BME280;51448;51.660;5.824;2023-09-19T12:44:59;100813.16;;;21.64;66.83
61119;BME280;51448;51.660;5.824;2023-09-19T12:47:28;100820.44;;;21.62;66.16
61119;BME280;51448;51.660;5.824;2023-09-19T12:50:14;100805.31;;;21.50;66.89
61119;BME280;51448;51.660;5.824;2023-09-19T12:52:47;100818.09;;;21.34;66.56
61119;BME280;51448;51.660;5.824;2023-09-19T13:00:39;100817.25;;;20.83;68.71
61119;BME280;51448;51.660;5.824;2023-09-19T13:06:02;100822.94;;;20.66;69.65
61119;BME280;51448;51.660;5.824;2023-09-19T13:08:33;100818.53;;;20.65;69.63
61119;BME280;51448;51.660;5.824;2023-09-19T13:19:44;100814.34;;;21.84;69.13
61119;BME280;51448;51.660;5.824;2023-09-19T13:22:43;100812.63;;;21.59;68.26
61119;BME280;51448;51.660;5.824;2023-09-19T13:25:22;100813.56;;;21.34;68.54
61119;BME280;51448;51.660;5.824;2023-09-19T13:27:51;100805.06;;;21.16;68.47
61119;BME280;51448;51.660;5.824;2023-09-19T13:30:21;100825.03;;;20.99;68.71
61119;BME280;51448;51.660;5.824;2023-09-19T13:33:09;100812.78;;;20.84;69.36
61119;BME280;51448;51.660;5.824;2023-09-19T13:35:38;100819.00;;;20.72;70.22
61119;BME280;51448;51.660;5.824;2023-09-19T13:38:08;100821.44;;;20.62;70.64
61119;BME280;51448;51.660;5.824;2023-09-19T13:40:41;100806.91;;;20.53;71.50
61119;BME280;51448;51.660;5.824;2023-09-19T13:43:09;100815.00;;;20.52;72.25
61119;BME280;51448;51.660;5.824;2023-09-19T13:45:38;100817.59;;;20.53;71.57
61119;BME280;51448;51.660;5.824;2023-09-19T13:48:09;100815.97;;;20.50;71.85
61119;BME280;51448;51.660;5.824;2023-09-19T13:50:40;100817.13;;;20.46;71.03
61119;BME280;51448;51.660;5.824;2023-09-19T13:53:10;100813.09;;;20.41;71.82
61119;BME280;51448;51.660;5.824;2023-09-19T13:55:37;100813.19;;;20.39;71.56
61119;BME280;51448;51.660;5.824;2023-09-19T13:58:05;100807.84;;;20.39;71.39
61119;BME280;51448;51.660;5.824;2023-09-19T14:00:34;100809.56;;;20.40;71.42
61119;BME280;51448;51.660;5.824;2023-09-19T14:03:01;100814.69;;;20.43;71.46
61119;BME280;51448;51.660;5.824;2023-09-19T14:05:32;100809.78;;;20.50;70.94